sensor_id;sensor_type;location;lat;lon;timestamp;temperature;humidity
16158;DHT22;8184;60.256;18.694;2023-03-12T00:02:10;-9.50;99.90
16158;DHT22;8184;60.256;18.694;2023-03-12T00:04:39;-9.50;99.90
16158;DHT22;8184;60.256;18.694;2023-03-12T00:07:07;-9.50;99.90
16158;DHT22;8184;60.256;18.694;2023-03-12T00:09:36;-9.60;99.90
16158;DHT22;8184;60.256;18.694;2023-03-12T00:12:04;-9.80;99.90
16158;DHT22;8184;60.256;18.694;2023-03-12T00:14:34;-9.80;99.90
16158;DHT22;8184;60.256;18.694;2023-03-12T00:17:03;-9.70;99.90
16158;DHT22;8184;60.256;18.694;2023-03-12T00:19:31;-9.90;99.90
16158;DHT22;8184;60.256;18.694;2023-03-12T00:22:00;-10.10;99.90
16158;DHT22;8184;60.256;18.694;2023-03-12T00:24:28;-10.10;99.90
16158;DHT22;8184;60.256;18.694;2023-03-12T00:26:56;-10.00;99.90
16158;DHT22;8184;60.256;18.694;2023-03-12T00:29:24;-9.90;99.90
16158;DHT22;8184;60.256;18.694;2023-03-12T00:31:54;-9.80;99.90
16158;DHT22;8184;60.256;18.694;2023-03-12T00:34:23;-10.00;99.90
16158;DHT22;8184;60.256;18.694;2023-03-12T00:36:51;-10.00;99.90
16158;DHT22;8184;60.256;18.694;2023-03-12T00:39:19;-10.00;99.90
16158;DHT22;8184;60.256;18.694;2023-03-12T00:41:47;-9.90;99.90
16158;DHT22;8184;60.256;18.694;2023-03-12T00:44:16;-9.80;99.90
16158;DHT22;8184;60.256;18.694;2023-03-12T00:46:44;-9.90;99.90
16158;DHT22;8184;60.256;18.694;2023-03-12T00:49:14;-9.90;99.90
16158;DHT22;8184;60.256;18.694;2023-03-12T00:51:42;-9.90;99.90
16158;DHT22;8184;60.256;18.694;2023-03-12T00:54:10;-10.00;99.90
16158;DHT22;8184;60.256;18.694;2023-03-12T00:56:38;-10.10;99.90
16158;DHT22;8184;60.256;18.694;2023-03-12T00:59:07;-10.00;99.90
16158;DHT22;8184;60.256;18.694;2023-03-12T01:01:35;-10.10;99.90
16158;DHT22;8184;60.256;18.694;2023-03-12T01:04:03;-9.80;99.90
16158;DHT22;8184;60.256;18.694;2023-03-12T01:06:33;-10.10;99.90
16158;DHT22;8184;60.256;18.694;2023-03-12T01:09:01;-10.10;99.90
16158;DHT22;8184;60.256;18.694;2023-03-12T01:11:31;-10.00;99.90
16158;DHT22;8184;60.256;18.694;2023-03-12T01:13:59;-10.00;99.90
16158;DHT22;8184;60.256;18.694;2023-03-12T01:16:28;-10.20;99.90
16158;DHT22;8184;60.256;18.694;2023-03-12T01:18:57;-10.30;99.90
16158;DHT22;8184;60.256;18.694;2023-03-12T01:21:26;-10.30;99.90
16158;DHT22;8184;60.256;18.694;2023-03-12T01:23:56;-10.20;99.90
16158;DHT22;8184;60.256;18.694;2023-03-12T01:26:25;-10.10;99.90
16158;DHT22;8184;60.256;18.694;2023-03-12T01:28:53;-10.20;99.90
16158;DHT22;8184;60.256;18.694;2023-03-12T01:31:21;-10.30;99.90
16158;DHT22;8184;60.256;18.694;2023-03-12T01:33:50;-10.30;99.90
16158;DHT22;8184;60.256;18.694;2023-03-12T01:36:19;-10.30;99.90
16158;DHT22;8184;60.256;18.694;2023-03-12T01:38:49;-10.30;99.90
16158;DHT22;8184;60.256;18.694;2023-03-12T01:41:19;-10.20;99.90
16158;DHT22;8184;60.256;18.694;2023-03-12T01:43:47;-10.30;99.90
16158;DHT22;8184;60.256;18.694;2023-03-12T01:46:21;-10.30;99.90
16158;DHT22;8184;60.256;18.694;2023-03-12T01:48:52;-10.30;99.90
16158;DHT22;8184;60.256;18.694;2023-03-12T01:51:22;-10.30;99.90
16158;DHT22;8184;60.256;18.694;2023-03-12T01:53:52;-10.40;99.90
16158;DHT22;8184;60.256;18.694;2023-03-12T01:56:24;-10.50;99.90
16158;DHT22;8184;60.256;18.694;2023-03-12T01:58:55;-11.70;99.90
16158;DHT22;8184;60.256;18.694;2023-03-12T02:01:25;-10.40;99.90
16158;DHT22;8184;60.256;18.694;2023-03-12T02:03:54;-10.50;99.90
16158;DHT22;8184;60.256;18.694;2023-03-12T02:06:24;-10.50;99.90
16158;DHT22;8184;60.256;18.694;2023-03-12T02:08:53;-10.70;99.90
16158;DHT22;8184;60.256;18.694;2023-03-12T02:11:23;-10.80;99.90
16158;DHT22;8184;60.256;18.694;2023-03-12T02:13:52;-10.60;99.90
16158;DHT22;8184;60.256;18.694;2023-03-12T02:16:20;-10.60;99.90
16158;DHT22;8184;60.256;18.694;2023-03-12T02:18:49;-10.70;99.90
16158;DHT22;8184;60.256;18.694;2023-03-12T02:21:20;-10.60;99.90
16158;DHT22;8184;60.256;18.694;2023-03-12T02:23:51;-10.50;99.90
16158;DHT22;8184;60.256;18.694;2023-03-12T02:26:23;-10.60;99.90
16158;DHT22;8184;60.256;18.694;2023-03-12T02:28:52;-10.70;99.90
16158;DHT22;8184;60.256;18.694;2023-03-12T02:31:22;-10.60;99.90
16158;DHT22;8184;60.256;18.694;2023-03-12T02:33:51;-10.60;99.90
16158;DHT22;8184;60.256;18.694;2023-03-12T02:36:21;-10.60;99.90
16158;DHT22;8184;60.256;18.694;2023-03-12T02:38:50;-10.60;99.90
16158;DHT22;8184;60.256;18.694;2023-03-12T02:41:19;-10.80;99.90
16158;DHT22;8184;60.256;18.694;2023-03-12T02:43:51;-10.70;99.90
16158;DHT22;8184;60.256;18.694;2023-03-12T02:46:21;-10.60;99.90
16158;DHT22;8184;60.256;18.694;2023-03-12T02:48:50;-10.70;99.90
16158;DHT22;8184;60.256;18.694;2023-03-12T02:51:19;-10.70;99.90
16158;DHT22;8184;60.256;18.694;2023-03-12T02:53:47;-10.70;99.90
16158;DHT22;8184;60.256;18.694;2023-03-12T02:56:21;-10.70;99.90
16158;DHT22;8184;60.256;18.694;2023-03-12T02:58:50;-10.60;99.90
16158;DHT22;8184;60.256;18.694;2023-03-12T03:01:19;-10.60;99.90
16158;DHT22;8184;60.256;18.694;2023-03-12T03:03:48;-10.80;99.90
16158;DHT22;8184;60.256;18.694;2023-03-12T03:06:16;-10.80;99.90
16158;DHT22;8184;60.256;18.694;2023-03-12T03:08:45;-10.70;99.90
16158;DHT22;8184;60.256;18.694;2023-03-12T03:11:13;-10.50;99.90
16158;DHT22;8184;60.256;18.694;2023-03-12T03:13:42;-10.20;99.90
16158;DHT22;8184;60.256;18.694;2023-03-12T03:16:11;-10.40;99.90
16158;DHT22;8184;60.256;18.694;2023-03-12T03:18:39;-10.50;99.90
16158;DHT22;8184;60.256;18.694;2023-03-12T03:21:08;-10.30;99.90
16158;DHT22;8184;60.256;18.694;2023-03-12T03:23:42;-10.30;99.90
16158;DHT22;8184;60.256;18.694;2023-03-12T03:26:10;-10.20;99.90
16158;DHT22;8184;60.256;18.694;2023-03-12T03:28:42;-10.30;99.90
16158;DHT22;8184;60.256;18.694;2023-03-12T03:31:12;-10.30;99.90
16158;DHT22;8184;60.256;18.694;2023-03-12T03:33:40;-10.30;99.90
16158;DHT22;8184;60.256;18.694;2023-03-12T03:36:43;-10.40;99.90
16158;DHT22;8184;60.256;18.694;2023-03-12T03:39:11;-10.40;99.90
16158;DHT22;8184;60.256;18.694;2023-03-12T03:41:39;-10.40;99.90
16158;DHT22;8184;60.256;18.694;2023-03-12T03:44:07;-10.40;99.90
16158;DHT22;8184;60.256;18.694;2023-03-12T03:46:36;-10.40;99.90
16158;DHT22;8184;60.256;18.694;2023-03-12T03:49:04;-10.40;99.90
16158;DHT22;8184;60.256;18.694;2023-03-12T03:51:33;-10.40;99.90
16158;DHT22;8184;60.256;18.694;2023-03-12T03:54:03;-10.40;99.90
16158;DHT22;8184;60.256;18.694;2023-03-12T03:56:31;-10.40;99.90
16158;DHT22;8184;60.256;18.694;2023-03-12T03:58:59;-10.40;99.90
16158;DHT22;8184;60.256;18.694;2023-03-12T04:01:28;-10.40;99.90
16158;DHT22;8184;60.256;18.694;2023-03-12T04:03:57;-10.50;99.90
16158;DHT22;8184;60.256;18.694;2023-03-12T04:06:25;-10.40;99.90
16158;DHT22;8184;60.256;18.694;2023-03-12T04:08:55;-10.20;99.90
16158;DHT22;8184;60.256;18.694;2023-03-12T04:11:25;-10.20;99.90
16158;DHT22;8184;60.256;18.694;2023-03-12T04:13:53;-10.40;99.90
16158;DHT22;8184;60.256;18.694;2023-03-12T04:16:22;-10.40;99.90
16158;DHT22;8184;60.256;18.694;2023-03-12T04:18:50;-10.40;99.90
16158;DHT22;8184;60.256;18.694;2023-03-12T04:21:18;-10.40;99.90
16158;DHT22;8184;60.256;18.694;2023-03-12T04:23:47;-10.30;99.90
16158;DHT22;8184;60.256;18.694;2023-03-12T04:26:15;-10.50;99.90
16158;DHT22;8184;60.256;18.694;2023-03-12T04:28:45;-10.40;99.90
16158;DHT22;8184;60.256;18.694;2023-03-12T04:31:13;-10.20;99.90
16158;DHT22;8184;60.256;18.694;2023-03-12T04:33:41;-10.10;99.90
16158;DHT22;8184;60.256;18.694;2023-03-12T04:36:10;-10.40;99.90
16158;DHT22;8184;60.256;18.694;2023-03-12T04:38:39;-10.60;99.90
16158;DHT22;8184;60.256;18.694;2023-03-12T04:41:08;-10.50;99.90
16158;DHT22;8184;60.256;18.694;2023-03-12T04:43:48;-10.50;99.90
16158;DHT22;8184;60.256;18.694;2023-03-12T04:46:16;-10.40;99.90
16158;DHT22;8184;60.256;18.694;2023-03-12T04:48:45;-10.40;99.90
16158;DHT22;8184;60.256;18.694;2023-03-12T04:51:13;-10.20;99.90
16158;DHT22;8184;60.256;18.694;2023-03-12T04:53:41;-10.10;99.90
16158;DHT22;8184;60.256;18.694;2023-03-12T04:56:10;-10.00;99.90
16158;DHT22;8184;60.256;18.694;2023-03-12T04:58:38;-9.90;99.90
16158;DHT22;8184;60.256;18.694;2023-03-12T05:01:10;-10.10;99.90
16158;DHT22;8184;60.256;18.694;2023-03-12T05:03:39;-10.00;99.90
16158;DHT22;8184;60.256;18.694;2023-03-12T05:06:07;-10.00;99.90
16158;DHT22;8184;60.256;18.694;2023-03-12T05:08:36;-10.10;99.90
16158;DHT22;8184;60.256;18.694;2023-03-12T05:11:04;-10.20;99.90
16158;DHT22;8184;60.256;18.694;2023-03-12T05:13:33;-10.20;99.90
16158;DHT22;8184;60.256;18.694;2023-03-12T05:16:01;-10.30;99.90
16158;DHT22;8184;60.256;18.694;2023-03-12T05:18:31;-10.30;99.90
16158;DHT22;8184;60.256;18.694;2023-03-12T05:20:59;-10.40;99.90
16158;DHT22;8184;60.256;18.694;2023-03-12T05:23:28;-10.20;99.90
16158;DHT22;8184;60.256;18.694;2023-03-12T05:25:56;-10.30;99.90
16158;DHT22;8184;60.256;18.694;2023-03-12T05:28:25;-10.30;99.90
16158;DHT22;8184;60.256;18.694;2023-03-12T05:30:54;-10.30;99.90
16158;DHT22;8184;60.256;18.694;2023-03-12T05:33:23;-10.10;99.90
16158;DHT22;8184;60.256;18.694;2023-03-12T05:35:53;-9.90;99.90
16158;DHT22;8184;60.256;18.694;2023-03-12T05:38:21;-9.70;99.90
16158;DHT22;8184;60.256;18.694;2023-03-12T05:40:50;-9.80;99.90
16158;DHT22;8184;60.256;18.694;2023-03-12T05:43:19;-9.70;99.90
16158;DHT22;8184;60.256;18.694;2023-03-12T05:45:47;-9.40;99.90
16158;DHT22;8184;60.256;18.694;2023-03-12T05:48:16;-9.30;99.90
16158;DHT22;8184;60.256;18.694;2023-03-12T05:50:44;-9.30;99.90
16158;DHT22;8184;60.256;18.694;2023-03-12T05:53:14;-9.10;99.90
16158;DHT22;8184;60.256;18.694;2023-03-12T05:55:42;-8.90;99.90
16158;DHT22;8184;60.256;18.694;2023-03-12T05:58:11;-9.10;99.90
16158;DHT22;8184;60.256;18.694;2023-03-12T06:00:39;-9.20;99.90
16158;DHT22;8184;60.256;18.694;2023-03-12T06:03:08;-9.10;99.90
16158;DHT22;8184;60.256;18.694;2023-03-12T06:05:36;-9.10;99.90
16158;DHT22;8184;60.256;18.694;2023-03-12T06:08:05;-9.10;99.90
16158;DHT22;8184;60.256;18.694;2023-03-12T06:10:36;-9.00;99.90
16158;DHT22;8184;60.256;18.694;2023-03-12T06:13:04;-9.10;99.90
16158;DHT22;8184;60.256;18.694;2023-03-12T06:15:32;-9.20;99.90
16158;DHT22;8184;60.256;18.694;2023-03-12T06:18:01;-9.20;99.90
16158;DHT22;8184;60.256;18.694;2023-03-12T06:20:29;-9.10;99.90
16158;DHT22;8184;60.256;18.694;2023-03-12T06:22:57;-9.10;99.90
16158;DHT22;8184;60.256;18.694;2023-03-12T06:25:26;-9.10;99.90
16158;DHT22;8184;60.256;18.694;2023-03-12T06:27:55;-9.00;99.90
16158;DHT22;8184;60.256;18.694;2023-03-12T06:30:23;-9.00;99.90
16158;DHT22;8184;60.256;18.694;2023-03-12T06:32:53;-8.80;99.90
16158;DHT22;8184;60.256;18.694;2023-03-12T06:35:21;-8.70;99.90
16158;DHT22;8184;60.256;18.694;2023-03-12T06:37:50;-8.70;99.90
16158;DHT22;8184;60.256;18.694;2023-03-12T06:40:18;-8.60;99.90
16158;DHT22;8184;60.256;18.694;2023-03-12T06:42:46;-8.30;99.90
16158;DHT22;8184;60.256;18.694;2023-03-12T06:45:16;-8.30;99.90
16158;DHT22;8184;60.256;18.694;2023-03-12T06:47:45;-8.20;99.90
16158;DHT22;8184;60.256;18.694;2023-03-12T06:50:13;-8.10;99.90
16158;DHT22;8184;60.256;18.694;2023-03-12T06:52:41;-8.10;99.90
16158;DHT22;8184;60.256;18.694;2023-03-12T06:55:10;-7.90;99.90
16158;DHT22;8184;60.256;18.694;2023-03-12T06:57:38;-7.80;99.90
16158;DHT22;8184;60.256;18.694;2023-03-12T07:00:07;-7.50;99.90
16158;DHT22;8184;60.256;18.694;2023-03-12T07:02:37;-7.50;99.90
16158;DHT22;8184;60.256;18.694;2023-03-12T07:05:05;-7.20;99.90
16158;DHT22;8184;60.256;18.694;2023-03-12T07:07:34;-7.20;99.90
16158;DHT22;8184;60.256;18.694;2023-03-12T07:10:03;-7.00;99.90
16158;DHT22;8184;60.256;18.694;2023-03-12T07:12:32;-6.80;99.90
16158;DHT22;8184;60.256;18.694;2023-03-12T07:15:00;-6.60;99.90
16158;DHT22;8184;60.256;18.694;2023-03-12T07:17:28;-6.60;99.90
16158;DHT22;8184;60.256;18.694;2023-03-12T07:19:58;-6.50;99.90
16158;DHT22;8184;60.256;18.694;2023-03-12T07:22:26;-6.50;99.90
16158;DHT22;8184;60.256;18.694;2023-03-12T07:24:55;-6.40;99.90
16158;DHT22;8184;60.256;18.694;2023-03-12T07:27:23;-6.30;99.90
16158;DHT22;8184;60.256;18.694;2023-03-12T07:29:51;-6.20;99.90
16158;DHT22;8184;60.256;18.694;2023-03-12T07:32:19;-6.10;99.90
16158;DHT22;8184;60.256;18.694;2023-03-12T07:34:48;-6.00;99.90
16158;DHT22;8184;60.256;18.694;2023-03-12T07:37:17;-5.70;99.90
16158;DHT22;8184;60.256;18.694;2023-03-12T07:39:46;-5.50;99.90
16158;DHT22;8184;60.256;18.694;2023-03-12T07:42:17;-5.40;99.90
16158;DHT22;8184;60.256;18.694;2023-03-12T07:44:46;-5.30;99.90
16158;DHT22;8184;60.256;18.694;2023-03-12T07:47:14;-5.20;99.90
16158;DHT22;8184;60.256;18.694;2023-03-12T07:49:50;-5.10;99.90
16158;DHT22;8184;60.256;18.694;2023-03-12T07:52:19;-4.90;99.90
16158;DHT22;8184;60.256;18.694;2023-03-12T07:54:49;-4.60;99.90
16158;DHT22;8184;60.256;18.694;2023-03-12T07:57:18;-4.40;99.90
16158;DHT22;8184;60.256;18.694;2023-03-12T07:59:46;-4.30;99.90
16158;DHT22;8184;60.256;18.694;2023-03-12T08:02:15;-4.40;99.90
16158;DHT22;8184;60.256;18.694;2023-03-12T08:04:44;-4.40;99.90
16158;DHT22;8184;60.256;18.694;2023-03-12T08:07:12;-4.50;99.90
16158;DHT22;8184;60.256;18.694;2023-03-12T08:09:42;-4.50;99.90
16158;DHT22;8184;60.256;18.694;2023-03-12T08:12:11;-4.50;99.90
16158;DHT22;8184;60.256;18.694;2023-03-12T08:14:39;-4.50;99.90
16158;DHT22;8184;60.256;18.694;2023-03-12T08:17:08;-4.50;99.90
16158;DHT22;8184;60.256;18.694;2023-03-12T08:19:37;-4.30;99.90
16158;DHT22;8184;60.256;18.694;2023-03-12T08:22:05;-4.00;99.90
16158;DHT22;8184;60.256;18.694;2023-03-12T08:24:34;-3.80;99.90
16158;DHT22;8184;60.256;18.694;2023-03-12T08:27:03;-3.50;99.90
16158;DHT22;8184;60.256;18.694;2023-03-12T08:29:32;-3.50;99.90
16158;DHT22;8184;60.256;18.694;2023-03-12T08:32:00;-3.40;99.90
16158;DHT22;8184;60.256;18.694;2023-03-12T08:34:31;-3.50;99.90
16158;DHT22;8184;60.256;18.694;2023-03-12T08:36:59;-3.30;99.90
16158;DHT22;8184;60.256;18.694;2023-03-12T08:39:28;-3.10;99.90
16158;DHT22;8184;60.256;18.694;2023-03-12T08:41:57;-3.00;99.90
16158;DHT22;8184;60.256;18.694;2023-03-12T08:44:26;-2.80;99.90
16158;DHT22;8184;60.256;18.694;2023-03-12T08:46:55;-2.60;99.90
16158;DHT22;8184;60.256;18.694;2023-03-12T08:49:23;-2.40;99.90
16158;DHT22;8184;60.256;18.694;2023-03-12T08:51:51;-2.20;99.90
16158;DHT22;8184;60.256;18.694;2023-03-12T08:54:20;-2.00;99.90
16158;DHT22;8184;60.256;18.694;2023-03-12T08:56:48;-1.90;99.90
16158;DHT22;8184;60.256;18.694;2023-03-12T08:59:18;-1.90;99.90
16158;DHT22;8184;60.256;18.694;2023-03-12T09:01:49;-1.90;99.90
16158;DHT22;8184;60.256;18.694;2023-03-12T09:04:17;-1.70;99.90
16158;DHT22;8184;60.256;18.694;2023-03-12T09:06:46;-1.60;99.90
16158;DHT22;8184;60.256;18.694;2023-03-12T09:09:14;-1.60;99.90
16158;DHT22;8184;60.256;18.694;2023-03-12T09:11:42;-1.50;99.90
16158;DHT22;8184;60.256;18.694;2023-03-12T09:14:11;-1.60;99.90
16158;DHT22;8184;60.256;18.694;2023-03-12T09:17:00;-1.60;99.90
16158;DHT22;8184;60.256;18.694;2023-03-12T09:19:29;-1.60;99.90
16158;DHT22;8184;60.256;18.694;2023-03-12T09:21:57;-1.60;99.90
16158;DHT22;8184;60.256;18.694;2023-03-12T09:24:25;-1.50;99.90
16158;DHT22;8184;60.256;18.694;2023-03-12T09:26:53;-1.40;99.90
16158;DHT22;8184;60.256;18.694;2023-03-12T09:29:21;-1.10;99.90
16158;DHT22;8184;60.256;18.694;2023-03-12T09:31:50;-1.30;99.90
16158;DHT22;8184;60.256;18.694;2023-03-12T09:34:20;-1.60;99.90
16158;DHT22;8184;60.256;18.694;2023-03-12T09:36:50;-1.70;99.90
16158;DHT22;8184;60.256;18.694;2023-03-12T09:39:18;-1.70;99.90
16158;DHT22;8184;60.256;18.694;2023-03-12T09:41:48;-1.60;99.90
16158;DHT22;8184;60.256;18.694;2023-03-12T09:44:22;-1.50;99.90
16158;DHT22;8184;60.256;18.694;2023-03-12T09:46:52;-1.50;99.90
16158;DHT22;8184;60.256;18.694;2023-03-12T09:49:25;-1.40;99.90
16158;DHT22;8184;60.256;18.694;2023-03-12T09:51:56;-1.40;99.90
16158;DHT22;8184;60.256;18.694;2023-03-12T09:54:27;-1.20;99.90
16158;DHT22;8184;60.256;18.694;2023-03-12T09:56:57;-1.10;99.90
16158;DHT22;8184;60.256;18.694;2023-03-12T09:59:27;-0.90;99.90
16158;DHT22;8184;60.256;18.694;2023-03-12T10:01:56;-0.70;99.90
16158;DHT22;8184;60.256;18.694;2023-03-12T10:04:33;-0.60;99.90
16158;DHT22;8184;60.256;18.694;2023-03-12T10:07:24;-0.40;99.90
16158;DHT22;8184;60.256;18.694;2023-03-12T10:12:42;-0.60;99.90
16158;DHT22;8184;60.256;18.694;2023-03-12T10:15:16;-0.40;99.90
16158;DHT22;8184;60.256;18.694;2023-03-12T10:17:55;-0.80;99.90
16158;DHT22;8184;60.256;18.694;2023-03-12T10:20:39;-0.80;99.90
16158;DHT22;8184;60.256;18.694;2023-03-12T10:23:10;-0.60;99.90
16158;DHT22;8184;60.256;18.694;2023-03-12T10:25:40;-0.60;99.90
16158;DHT22;8184;60.256;18.694;2023-03-12T10:28:13;-0.40;99.90
16158;DHT22;8184;60.256;18.694;2023-03-12T10:30:45;-0.40;99.90
16158;DHT22;8184;60.256;18.694;2023-03-12T10:33:15;-0.50;99.90
16158;DHT22;8184;60.256;18.694;2023-03-12T10:35:46;-0.20;99.90
16158;DHT22;8184;60.256;18.694;2023-03-12T10:38:25;-0.20;99.90
16158;DHT22;8184;60.256;18.694;2023-03-12T10:40:53;-0.40;99.90
16158;DHT22;8184;60.256;18.694;2023-03-12T10:43:21;-0.30;99.90
16158;DHT22;8184;60.256;18.694;2023-03-12T10:45:52;-0.30;99.90
16158;DHT22;8184;60.256;18.694;2023-03-12T10:48:24;-0.20;99.90
16158;DHT22;8184;60.256;18.694;2023-03-12T10:51:03;-0.40;99.90
16158;DHT22;8184;60.256;18.694;2023-03-12T10:53:32;-0.40;99.90
16158;DHT22;8184;60.256;18.694;2023-03-12T10:56:02;-0.30;99.90
16158;DHT22;8184;60.256;18.694;2023-03-12T10:58:35;-0.20;99.90
16158;DHT22;8184;60.256;18.694;2023-03-12T11:01:04;-0.50;99.90
16158;DHT22;8184;60.256;18.694;2023-03-12T11:03:32;-0.30;99.90
16158;DHT22;8184;60.256;18.694;2023-03-12T11:06:02;0.00;99.90
16158;DHT22;8184;60.256;18.694;2023-03-12T11:08:34;0.20;99.90
16158;DHT22;8184;60.256;18.694;2023-03-12T11:11:03;0.10;99.90
16158;DHT22;8184;60.256;18.694;2023-03-12T11:13:32;0.00;99.90
16158;DHT22;8184;60.256;18.694;2023-03-12T11:16:01;0.00;99.90
16158;DHT22;8184;60.256;18.694;2023-03-12T11:18:31;0.10;99.90
16158;DHT22;8184;60.256;18.694;2023-03-12T11:21:17;0.40;99.90
16158;DHT22;8184;60.256;18.694;2023-03-12T11:24:02;0.70;99.90
16158;DHT22;8184;60.256;18.694;2023-03-12T11:26:34;0.40;99.90
16158;DHT22;8184;60.256;18.694;2023-03-12T11:29:04;0.60;99.90
16158;DHT22;8184;60.256;18.694;2023-03-12T11:31:35;0.40;99.90
16158;DHT22;8184;60.256;18.694;2023-03-12T11:34:05;0.50;99.90
16158;DHT22;8184;60.256;18.694;2023-03-12T11:36:39;0.40;99.90
16158;DHT22;8184;60.256;18.694;2023-03-12T11:39:12;0.40;99.90
16158;DHT22;8184;60.256;18.694;2023-03-12T11:41:47;0.20;99.90
16158;DHT22;8184;60.256;18.694;2023-03-12T11:44:20;0.40;99.90
16158;DHT22;8184;60.256;18.694;2023-03-12T11:46:55;0.80;99.90
16158;DHT22;8184;60.256;18.694;2023-03-12T11:49:30;0.80;99.90
16158;DHT22;8184;60.256;18.694;2023-03-12T11:52:04;0.70;99.90
16158;DHT22;8184;60.256;18.694;2023-03-12T11:57:27;1.20;99.90
16158;DHT22;8184;60.256;18.694;2023-03-12T11:59:59;0.90;99.90
16158;DHT22;8184;60.256;18.694;2023-03-12T12:02:40;1.20;99.90
16158;DHT22;8184;60.256;18.694;2023-03-12T12:05:20;1.10;99.90
16158;DHT22;8184;60.256;18.694;2023-03-12T12:10:37;1.40;99.90
16158;DHT22;8184;60.256;18.694;2023-03-12T12:13:10;1.70;99.90
16158;DHT22;8184;60.256;18.694;2023-03-12T12:15:43;1.70;99.90
16158;DHT22;8184;60.256;18.694;2023-03-12T12:18:20;1.60;99.90
16158;DHT22;8184;60.256;18.694;2023-03-12T12:20:53;1.30;99.90
16158;DHT22;8184;60.256;18.694;2023-03-12T12:23:26;1.10;99.90
16158;DHT22;8184;60.256;18.694;2023-03-12T12:26:03;1.00;99.90
16158;DHT22;8184;60.256;18.694;2023-03-12T12:28:36;1.10;99.90
16158;DHT22;8184;60.256;18.694;2023-03-12T12:31:09;1.10;99.90
16158;DHT22;8184;60.256;18.694;2023-03-12T12:33:46;1.10;99.90
16158;DHT22;8184;60.256;18.694;2023-03-12T12:36:20;1.20;99.90
16158;DHT22;8184;60.256;18.694;2023-03-12T12:38:51;1.20;99.90
16158;DHT22;8184;60.256;18.694;2023-03-12T12:41:24;1.50;99.90
16158;DHT22;8184;60.256;18.694;2023-03-12T12:43:54;1.60;99.90
16158;DHT22;8184;60.256;18.694;2023-03-12T12:46:24;1.50;99.90
16158;DHT22;8184;60.256;18.694;2023-03-12T12:48:54;1.40;99.90
16158;DHT22;8184;60.256;18.694;2023-03-12T12:51:24;1.30;99.90
16158;DHT22;8184;60.256;18.694;2023-03-12T12:53:54;1.20;99.90
16158;DHT22;8184;60.256;18.694;2023-03-12T12:56:27;1.30;99.90
16158;DHT22;8184;60.256;18.694;2023-03-12T12:59:03;1.70;99.90
16158;DHT22;8184;60.256;18.694;2023-03-12T13:01:33;1.80;99.90
16158;DHT22;8184;60.256;18.694;2023-03-12T13:04:03;2.00;99.90
16158;DHT22;8184;60.256;18.694;2023-03-12T13:09:20;2.00;99.90
16158;DHT22;8184;60.256;18.694;2023-03-12T13:11:49;2.30;99.90
16158;DHT22;8184;60.256;18.694;2023-03-12T13:14:22;2.00;99.90
16158;DHT22;8184;60.256;18.694;2023-03-12T13:17:08;1.90;99.90
16158;DHT22;8184;60.256;18.694;2023-03-12T13:19:46;2.00;99.90
16158;DHT22;8184;60.256;18.694;2023-03-12T13:22:29;1.60;99.90
16158;DHT22;8184;60.256;18.694;2023-03-12T13:25:06;1.70;99.90
16158;DHT22;8184;60.256;18.694;2023-03-12T13:27:39;1.50;99.90
16158;DHT22;8184;60.256;18.694;2023-03-12T13:33:10;1.40;99.90
16158;DHT22;8184;60.256;18.694;2023-03-12T13:35:41;1.10;99.90
16158;DHT22;8184;60.256;18.694;2023-03-12T13:38:17;1.30;99.90
16158;DHT22;8184;60.256;18.694;2023-03-12T13:49:03;1.60;99.90
16158;DHT22;8184;60.256;18.694;2023-03-12T13:51:32;1.80;99.90
16158;DHT22;8184;60.256;18.694;2023-03-12T13:54:11;1.60;99.90
16158;DHT22;8184;60.256;18.694;2023-03-12T13:56:44;1.50;99.90
16158;DHT22;8184;60.256;18.694;2023-03-12T13:59:15;1.50;99.90
16158;DHT22;8184;60.256;18.694;2023-03-12T14:01:44;1.50;99.90
16158;DHT22;8184;60.256;18.694;2023-03-12T14:04:16;1.40;99.90
16158;DHT22;8184;60.256;18.694;2023-03-12T14:06:49;1.40;99.90
16158;DHT22;8184;60.256;18.694;2023-03-12T14:09:22;1.10;99.90
16158;DHT22;8184;60.256;18.694;2023-03-12T14:11:58;1.30;99.90
16158;DHT22;8184;60.256;18.694;2023-03-12T14:17:16;1.30;99.90
16158;DHT22;8184;60.256;18.694;2023-03-12T14:19:47;1.00;99.90
16158;DHT22;8184;60.256;18.694;2023-03-12T14:22:17;1.10;99.90
16158;DHT22;8184;60.256;18.694;2023-03-12T14:24:50;1.10;99.90
16158;DHT22;8184;60.256;18.694;2023-03-12T14:27:20;1.30;99.90
16158;DHT22;8184;60.256;18.694;2023-03-12T14:29:51;1.20;99.90
16158;DHT22;8184;60.256;18.694;2023-03-12T14:32:22;1.30;99.90
16158;DHT22;8184;60.256;18.694;2023-03-12T14:34:53;1.20;99.90
16158;DHT22;8184;60.256;18.694;2023-03-12T14:37:23;1.10;99.90
16158;DHT22;8184;60.256;18.694;2023-03-12T14:39:52;1.00;99.90
16158;DHT22;8184;60.256;18.694;2023-03-12T14:42:22;0.80;99.90
16158;DHT22;8184;60.256;18.694;2023-03-12T14:44:56;0.80;99.90
16158;DHT22;8184;60.256;18.694;2023-03-12T14:47:25;0.90;99.90
16158;DHT22;8184;60.256;18.694;2023-03-12T14:49:56;0.80;99.90
16158;DHT22;8184;60.256;18.694;2023-03-12T14:52:27;0.90;99.90
16158;DHT22;8184;60.256;18.694;2023-03-12T14:54:56;0.80;99.90
16158;DHT22;8184;60.256;18.694;2023-03-12T14:57:25;0.60;99.90
16158;DHT22;8184;60.256;18.694;2023-03-12T14:59:53;0.80;99.90
16158;DHT22;8184;60.256;18.694;2023-03-12T15:02:22;0.90;99.90
16158;DHT22;8184;60.256;18.694;2023-03-12T15:04:51;0.80;99.90
16158;DHT22;8184;60.256;18.694;2023-03-12T15:07:24;0.90;99.90
16158;DHT22;8184;60.256;18.694;2023-03-12T15:09:55;0.80;99.90
16158;DHT22;8184;60.256;18.694;2023-03-12T15:12:24;0.80;99.90
16158;DHT22;8184;60.256;18.694;2023-03-12T15:14:53;0.80;99.90
16158;DHT22;8184;60.256;18.694;2023-03-12T15:17:23;0.80;99.90
16158;DHT22;8184;60.256;18.694;2023-03-12T15:19:54;0.80;99.90
16158;DHT22;8184;60.256;18.694;2023-03-12T15:22:24;0.80;99.90
16158;DHT22;8184;60.256;18.694;2023-03-12T15:24:53;0.80;99.90
16158;DHT22;8184;60.256;18.694;2023-03-12T15:27:29;0.60;99.90
16158;DHT22;8184;60.256;18.694;2023-03-12T15:29:59;0.40;99.90
16158;DHT22;8184;60.256;18.694;2023-03-12T15:32:27;0.60;99.90
16158;DHT22;8184;60.256;18.694;2023-03-12T15:34:57;0.50;99.90
16158;DHT22;8184;60.256;18.694;2023-03-12T15:37:28;0.30;99.90
16158;DHT22;8184;60.256;18.694;2023-03-12T15:40:06;0.40;99.90
16158;DHT22;8184;60.256;18.694;2023-03-12T15:42:37;0.20;99.90
16158;DHT22;8184;60.256;18.694;2023-03-12T15:45:13;0.10;99.90
16158;DHT22;8184;60.256;18.694;2023-03-12T15:47:43;0.00;99.90
16158;DHT22;8184;60.256;18.694;2023-03-12T15:50:17;0.00;99.90
16158;DHT22;8184;60.256;18.694;2023-03-12T15:52:58;-0.10;99.90
16158;DHT22;8184;60.256;18.694;2023-03-12T15:55:27;-0.10;99.90
16158;DHT22;8184;60.256;18.694;2023-03-12T15:57:56;-0.20;99.90
16158;DHT22;8184;60.256;18.694;2023-03-12T16:00:28;-0.30;99.90
16158;DHT22;8184;60.256;18.694;2023-03-12T16:02:58;-0.40;99.90
16158;DHT22;8184;60.256;18.694;2023-03-12T16:05:30;-0.50;99.90
16158;DHT22;8184;60.256;18.694;2023-03-12T16:08:01;-0.50;99.90
16158;DHT22;8184;60.256;18.694;2023-03-12T16:10:30;-0.60;99.90
16158;DHT22;8184;60.256;18.694;2023-03-12T16:13:01;-0.60;99.90
16158;DHT22;8184;60.256;18.694;2023-03-12T16:15:31;-0.70;99.90